Time;durP1;ratioP1;P1;durP2;ratioP2;P2;SDS_P1;SDS_P2;PMS_P1;PMS_P2;Temp;Humidity;BMP_temperature;BMP_pressure;BME280_temperature;BME280_humidity;BME280_pressure;Samples;Min_cycle;Max_cycle;Signal;HPM_P1;HPM_P2
2021/03/26 00:01:56;;;;;;;171.53;76.72;;;;;;;-0.75;55.52;99740.28;1725826;83;21357;-66
2021/03/26 00:04:23;;;;;;;126.33;55.03;;;;;;;-0.83;55.93;99746.50;1701099;84;21584;-68
2021/03/26 00:06:51;;;;;;;148.87;63.80;;;;;;;-0.85;55.43;99743.07;1718495;83;21160;-67
2021/03/26 00:09:25;;;;;;;126.55;57.98;;;;;;;-0.80;54.88;99747.33;1700874;84;21308;-67
2021/03/26 00:11:58;;;;;;;134.25;59.42;;;;;;;-0.77;54.54;99743.34;1718327;83;21207;-67
2021/03/26 00:14:27;;;;;;;124.20;53.80;;;;;;;-0.70;54.41;99747.52;1700775;84;21231;-67
2021/03/26 00:16:55;;;;;;;130.12;57.15;;;;;;;-0.68;53.83;99754.38;1701091;84;21179;-67
2021/03/26 00:19:23;;;;;;;129.38;58.38;;;;;;;-0.62;53.87;99745.57;1718562;83;21198;-67
2021/03/26 00:21:50;;;;;;;112.55;51.70;;;;;;;-0.58;53.33;99756.75;1700779;84;21179;-67
2021/03/26 00:24:17;;;;;;;139.43;62.25;;;;;;;-0.59;53.10;99739.02;1718282;83;21341;-67
2021/03/26 00:26:45;;;;;;;133.70;59.38;;;;;;;-0.57;53.70;99756.70;1700764;84;21171;-67
2021/03/26 00:29:16;;;;;;;150.12;63.23;;;;;;;-0.62;53.94;99761.16;1700433;84;21293;-67
2021/03/26 00:31:43;;;;;;;146.55;64.72;;;;;;;-0.68;54.97;99747.02;1701098;84;21162;-67
2021/03/26 00:34:10;;;;;;;134.00;58.50;;;;;;;-0.85;55.42;99757.36;1701029;84;21203;-67
2021/03/26 00:36:38;;;;;;;110.63;50.73;;;;;;;-0.84;55.20;99747.38;1701064;84;21333;-66
2021/03/26 00:39:06;;;;;;;122.45;54.33;;;;;;;-0.86;55.00;99748.31;1700868;84;21210;-67
2021/03/26 00:41:33;;;;;;;118.22;52.67;;;;;;;-0.79;54.79;99749.02;1700785;84;21473;-67
2021/03/26 00:44:02;;;;;;;120.33;52.90;;;;;;;-1.14;54.52;99702.22;1718597;83;21633;-67
2021/03/26 00:46:29;;;;;;;122.20;50.12;;;;;;;-0.77;54.94;99745.94;1675573;84;21313;-67
2021/03/26 00:48:57;;;;;;;120.53;53.28;;;;;;;-0.80;54.42;99752.06;1718383;83;21314;-67
2021/03/26 00:51:24;;;;;;;129.15;54.70;;;;;;;-0.77;54.61;99753.73;1700885;84;21214;-67
2021/03/26 00:53:52;;;;;;;107.03;50.30;;;;;;;-0.81;55.95;99759.44;1718757;83;21183;-67
2021/03/26 00:56:20;;;;;;;112.47;46.85;;;;;;;-0.84;55.33;99755.63;1701205;84;21234;-67
2021/03/26 00:58:49;;;;;;;105.37;48.60;;;;;;;-0.89;54.29;99746.64;1700877;84;21187;-67
2021/03/26 01:01:16;;;;;;;116.08;49.95;;;;;;;-0.85;53.84;99746.97;1701010;84;21364;-67
2021/03/26 01:03:44;;;;;;;119.97;50.73;;;;;;;-0.87;53.79;99750.06;1708301;84;21240;-67
2021/03/26 01:06:11;;;;;;;117.67;51.18;;;;;;;-0.84;54.25;99756.47;1727613;83;21583;-67
2021/03/26 01:08:40;;;;;;;130.95;60.28;;;;;;;-0.85;54.63;99760.41;1727377;83;21222;-66
2021/03/26 01:11:18;;;;;;;122.47;49.73;;;;;;;-0.85;55.20;99754.76;1727452;83;21155;-66
2021/03/26 01:13:47;;;;;;;120.00;52.90;;;;;;;-0.84;55.31;99757.77;1727372;83;21171;-67
2021/03/26 01:16:17;;;;;;;104.97;44.48;;;;;;;-0.81;55.24;99759.44;1727402;83;21211;-67
2021/03/26 01:18:47;;;;;;;116.40;47.55;;;;;;;-0.83;54.46;99756.88;1727217;83;21163;-67
2021/03/26 01:21:24;;;;;;;115.20;44.80;;;;;;;-0.82;54.11;99757.73;1727585;83;21215;-67
2021/03/26 01:23:51;;;;;;;111.28;45.73;;;;;;;-0.80;53.55;99759.02;1727390;83;21166;-67
2021/03/26 01:26:19;;;;;;;104.92;43.35;;;;;;;-0.79;53.85;99756.80;1722838;83;21250;-67
2021/03/26 01:28:49;;;;;;;114.82;45.33;;;;;;;-0.81;53.49;99763.80;1727315;83;21630;-67
2021/03/26 01:31:25;;;;;;;114.60;43.48;;;;;;;-0.79;53.44;99758.09;1727515;83;21619;-67
2021/03/26 01:33:54;;;;;;;113.85;46.15;;;;;;;-0.78;53.29;99767.61;1726716;83;21317;-67
2021/03/26 01:36:23;;;;;;;113.70;43.28;;;;;;;-0.75;53.08;99759.76;1727311;83;21188;-67
2021/03/26 01:38:51;;;;;;;110.92;45.38;;;;;;;-0.71;52.56;99773.07;1727686;83;21281;-67
2021/03/26 01:41:29;;;;;;;111.72;42.90;;;;;;;-0.66;52.54;99766.02;1698201;84;21210;-67
2021/03/26 01:43:57;;;;;;;111.42;43.33;;;;;;;-0.60;52.12;99765.88;1727367;83;21651;-67
2021/03/26 01:46:26;;;;;;;112.25;46.18;;;;;;;-0.59;52.23;99775.39;1727249;83;21189;-67
2021/03/26 01:49:01;;;;;;;105.80;44.80;;;;;;;-0.59;52.41;99775.39;1727534;83;21329;-67
2021/03/26 01:51:40;;;;;;;106.03;43.10;;;;;;;-0.61;52.45;99769.36;1727528;83;21151;-68
2021/03/26 01:54:14;;;;;;;104.32;40.45;;;;;;;-0.60;52.36;99778.87;1727447;83;21171;-67
2021/03/26 01:56:43;;;;;;;101.90;41.03;;;;;;;-0.62;52.34;99772.84;1727753;83;21147;-67
2021/03/26 01:59:13;;;;;;;79.77;36.88;;;;;;;-0.58;52.22;99773.17;1727297;83;21175;-67
2021/03/26 02:01:45;;;;;;;89.80;39.53;;;;;;;-0.60;52.05;99777.57;1727418;83;21190;-67
2021/03/26 02:04:42;;;;;;;92.45;40.75;;;;;;;-0.57;52.66;99777.48;1732267;83;21146;-66
2021/03/26 02:07:12;;;;;;;90.03;38.98;;;;;;;-0.61;53.89;99773.27;1643257;86;21334;-67
2021/03/26 02:09:40;;;;;;;90.87;39.88;;;;;;;-0.62;54.07;99778.04;1656858;85;21222;-67
2021/03/26 02:12:27;;;;;;;86.55;40.75;;;;;;;-0.65;53.88;99772.94;1671198;86;21325;-67
2021/03/26 02:15:03;;;;;;;89.75;38.83;;;;;;;-0.64;53.98;99772.02;1642630;87;21337;-67
2021/03/26 02:17:32;;;;;;;80.72;35.70;;;;;;;-0.71;54.66;99783.46;1671165;85;21631;-67
2021/03/26 02:20:37;;;;;;;84.07;36.77;;;;;;;-0.74;54.54;99774.42;1676473;85;21344;-66
2021/03/26 02:23:22;;;;;;;83.00;38.08;;;;;;;-0.78;54.22;99776.27;1728794;83;21195;-66
2021/03/26 02:26:17;;;;;;;86.10;36.53;;;;;;;-0.78;54.79;99777.98;1729725;83;21655;-66
2021/03/26 02:28:46;;;;;;;78.15;33.65;;;;;;;-0.80;54.70;99782.38;1729974;83;21132;-67
2021/03/26 02:31:18;;;;;;;82.55;36.08;;;;;;;-0.85;54.20;99776.83;1698268;83;21706;-66
2021/03/26 02:33:47;;;;;;;85.42;34.95;;;;;;;-0.81;54.38;99776.78;1729953;83;21340;-66
2021/03/26 02:36:34;;;;;;;66.75;30.50;;;;;;;-0.84;54.75;99773.34;1729752;83;21206;-66
2021/03/26 02:39:12;;;;;;;63.28;27.37;;;;;;;-0.84;54.00;99782.44;1729868;83;21147;-66
2021/03/26 02:41:46;;;;;;;72.00;32.23;;;;;;;-0.87;53.50;99776.03;1729741;83;21223;-66
2021/03/26 02:44:56;;;;;;;61.98;29.05;;;;;;;-0.83;53.56;99785.45;1727251;83;21297;-66
2021/03/26 02:47:37;;;;;;;65.60;30.75;;;;;;;-0.88;53.57;99771.72;1710226;83;21324;-66
2021/03/26 02:50:28;;;;;;;70.55;32.20;;;;;;;-0.85;53.25;99782.02;1727665;83;21190;-67
2021/03/26 02:53:24;;;;;;;69.90;31.20;;;;;;;-0.87;53.42;99775.16;1729699;83;21182;-66
2021/03/26 02:55:57;;;;;;;67.85;30.92;;;;;;;-0.85;53.30;99783.78;1728496;83;21179;-66
2021/03/26 02:58:31;;;;;;;66.90;29.67;;;;;;;-0.85;53.24;99776.83;1729735;83;21616;-66
2021/03/26 03:01:09;;;;;;;72.78;32.13;;;;;;;-0.84;52.92;99785.49;1727741;83;21170;-66
2021/03/26 03:03:37;;;;;;;69.03;30.20;;;;;;;-0.84;52.70;99775.95;1729891;83;21190;-66
2021/03/26 03:06:27;;;;;;;71.77;32.25;;;;;;;-0.84;52.87;99785.49;1746047;81;21721;-66
2021/03/26 03:09:13;;;;;;;67.17;29.48;;;;;;;-0.85;53.14;99784.62;1762223;81;21143;-66
2021/03/26 03:11:59;;;;;;;62.62;29.23;;;;;;;-0.86;53.29;99787.26;1762094;81;21211;-66
2021/03/26 03:14:35;;;;;;;67.03;30.37;;;;;;;-0.86;52.91;99790.73;1762303;81;21583;-66
2021/03/26 03:17:11;;;;;;;55.65;26.75;;;;;;;-0.91;53.38;99798.19;1761982;81;21333;-66
2021/03/26 03:20:10;;;;;;;52.20;24.23;;;;;;;-0.99;53.46;99796.61;1759629;80;21131;-66
2021/03/26 03:22:43;;;;;;;65.00;29.25;;;;;;;-1.07;53.66;99811.97;1762268;81;21179;-66
2021/03/26 03:25:18;;;;;;;65.37;28.40;;;;;;;-1.13;53.90;99813.39;1762206;81;21174;-66
2021/03/26 03:28:02;;;;;;;52.13;24.60;;;;;;;-1.19;54.63;99810.47;1762446;81;21194;-66
2021/03/26 03:31:16;;;;;;;44.13;19.92;;;;;;;-1.14;54.91;99811.67;1819105;79;23477;-67
2021/03/26 03:34:02;;;;;;;34.53;18.15;;;;;;;-1.22;54.79;99815.73;1792682;80;21183;-66
2021/03/26 03:36:57;;;;;;;35.60;17.60;;;;;;;-1.23;54.90;99825.27;1792713;80;21639;-67
2021/03/26 03:39:35;;;;;;;36.50;17.45;;;;;;;-1.22;54.96;99828.71;1792676;80;21273;-66
2021/03/26 03:42:24;;;;;;;38.63;18.55;;;;;;;-1.26;55.19;99826.61;1791749;80;21340;-67
2021/03/26 03:45:26;;;;;;;35.13;16.57;;;;;;;-1.23;55.32;99831.77;1777045;80;21147;-67
2021/03/26 03:48:05;;;;;;;35.48;17.25;;;;;;;-1.23;55.35;99825.27;1724763;83;21317;-67
2021/03/26 03:50:52;;;;;;;35.48;17.98;;;;;;;-1.18;55.30;99827.75;1723815;83;21843;-67
2021/03/26 03:53:30;;;;;;;35.88;17.37;;;;;;;-1.18;55.37;99836.41;1682829;83;21172;-67
2021/03/26 03:56:27;;;;;;;34.75;16.67;;;;;;;-1.14;55.48;99823.36;1724677;83;21373;-67
2021/03/26 03:59:03;;;;;;;37.67;17.48;;;;;;;-1.13;55.53;99825.08;1727770;83;21183;-67
2021/03/26 04:01:43;;;;;;;35.60;18.37;;;;;;;-1.18;55.62;99834.24;1696069;83;21187;-67
2021/03/26 04:04:18;;;;;;;33.48;17.57;;;;;;;-1.16;55.76;99827.29;1728131;83;21171;-67
2021/03/26 04:06:57;;;;;;;37.17;19.82;;;;;;;-1.21;56.05;99832.56;1724553;83;21175;-67
2021/03/26 04:09:34;;;;;;;35.03;18.27;;;;;;;-1.19;56.23;99828.20;1723022;83;21341;-67
2021/03/26 04:12:08;;;;;;;39.65;19.57;;;;;;;-1.24;56.40;99828.75;1727931;83;21143;-66
2021/03/26 04:14:57;;;;;;;34.90;18.92;;;;;;;-1.18;56.60;99826.45;1699772;83;21191;-66
2021/03/26 04:17:50;;;;;;;32.03;18.75;;;;;;;-0.87;56.72;99827.96;1777690;79;22952;-66
2021/03/26 04:20:39;;;;;;;37.23;19.10;;;;;;;-0.50;56.24;99827.12;1689235;83;21596;-66
2021/03/26 04:23:22;;;;;;;38.65;18.37;;;;;;;-0.12;55.79;99821.86;1723161;83;21293;-66
2021/03/26 04:26:06;;;;;;;34.85;17.42;;;;;;;0.25;55.34;99826.11;1721887;83;21272;-66
2021/03/26 04:28:57;;;;;;;35.08;17.67;;;;;;;0.68;54.54;99826.69;1779838;79;22962;-66
2021/03/26 04:31:33;;;;;;;30.85;15.68;;;;;;;0.94;53.36;99832.89;1751201;82;21281;-67
2021/03/26 04:34:09;;;;;;;30.85;16.17;;;;;;;1.04;53.04;99828.27;1752756;82;21627;-67
2021/03/26 04:37:06;;;;;;;32.75;16.48;;;;;;;1.01;53.18;99837.03;1753280;81;21139;-66
2021/03/26 04:39:41;;;;;;;30.05;15.83;;;;;;;0.75;53.79;99833.87;1727968;82;21313;-66
2021/03/26 04:42:13;;;;;;;33.18;16.10;;;;;;;0.60;54.74;99839.05;1753002;82;21182;-66
2021/03/26 04:44:53;;;;;;;34.43;18.20;;;;;;;0.49;55.56;99842.80;1748333;82;21344;-66
2021/03/26 04:47:41;;;;;;;34.78;18.00;;;;;;;0.64;55.99;99835.03;1722192;83;21333;-66
2021/03/26 04:50:21;;;;;;;28.98;14.85;;;;;;;1.13;55.68;99834.03;1694530;83;21294;-67
2021/03/26 04:53:00;;;;;;;29.75;15.13;;;;;;;1.82;54.57;99854.07;1723395;83;21293;-67
2021/03/26 04:55:36;;;;;;;31.40;16.52;;;;;;;2.27;53.71;99846.92;1723469;83;21151;-67
2021/03/26 04:58:26;;;;;;;26.65;14.45;;;;;;;2.66;53.35;99848.17;1673738;86;21171;-66
2021/03/26 05:01:14;;;;;;;31.27;17.23;;;;;;;3.10;52.59;99857.45;1715127;83;21214;-66
2021/03/26 05:03:57;;;;;;;30.85;16.42;;;;;;;3.44;52.41;99855.69;1722792;83;21761;-66
2021/03/26 05:06:29;;;;;;;26.70;15.05;;;;;;;3.71;52.17;99856.81;1723388;83;21556;-66
2021/03/26 05:09:10;;;;;;;25.17;14.10;;;;;;;4.01;51.73;99849.92;1723563;83;21159;-66
2021/03/26 05:11:45;;;;;;;24.77;13.58;;;;;;;4.18;51.23;99849.67;1719082;83;21923;-66
2021/03/26 05:14:19;;;;;;;25.55;15.05;;;;;;;4.26;51.27;99856.77;1723448;83;21111;-66
2021/03/26 05:17:02;;;;;;;29.85;15.50;;;;;;;4.41;51.12;99853.92;1723201;83;21293;-66
2021/03/26 05:19:56;;;;;;;24.52;14.15;;;;;;;4.54;50.83;99858.16;1723510;83;21738;-66
2021/03/26 05:22:47;;;;;;;22.60;12.53;;;;;;;4.74;50.42;99855.98;1723148;83;21321;-66
2021/03/26 05:25:23;;;;;;;26.30;15.20;;;;;;;4.84;50.16;99853.81;1723323;83;21123;-66
2021/03/26 05:28:00;;;;;;;30.00;15.95;;;;;;;4.84;50.08;99860.37;1720252;83;21154;-66
2021/03/26 05:30:36;;;;;;;28.70;15.75;;;;;;;4.84;50.20;99861.67;1724171;83;21305;-66
2021/03/26 05:33:11;;;;;;;26.48;14.63;;;;;;;4.90;50.07;99858.78;1722988;83;21182;-66
2021/03/26 05:36:02;;;;;;;26.37;14.58;;;;;;;4.98;50.17;99864.99;1712290;83;21151;-66
2021/03/26 05:38:48;;;;;;;27.10;15.63;;;;;;;5.05;49.52;99862.02;1666101;83;21615;-67
2021/03/26 05:42:02;;;;;;;26.05;15.68;;;;;;;5.05;49.84;99858.53;1723421;83;21599;-67
2021/03/26 05:45:08;;;;;;;31.12;15.78;;;;;;;5.08;50.27;99868.42;1723531;83;21182;-67
2021/03/26 05:48:02;;;;;;;30.00;16.55;;;;;;;5.19;49.74;99869.70;1723503;83;21191;-67
2021/03/26 05:51:04;;;;;;;27.98;16.00;;;;;;;5.30;49.60;99863.50;1696873;83;21595;-67
2021/03/26 05:54:15;;;;;;;31.33;17.27;;;;;;;5.46;49.75;99874.58;1722773;83;21607;-67
2021/03/26 05:57:43;;;;;;;25.90;15.65;;;;;;;5.77;49.11;99874.42;1723260;83;21162;-67
2021/03/26 06:00:48;;;;;;;28.32;16.55;;;;;;;5.90;49.51;99876.84;1723336;83;21135;-67
2021/03/26 06:04:13;;;;;;;30.05;17.23;;;;;;;6.20;49.14;99878.45;1816767;79;22238;-68
2021/03/26 06:07:43;;;;;;;28.38;17.25;;;;;;;6.20;48.71;99881.08;1787691;80;21138;-67
2021/03/26 06:10:49;;;;;;;28.75;16.93;;;;;;;6.05;48.87;99887.94;1787728;80;21142;-66
2021/03/26 06:14:08;;;;;;;29.92;17.37;;;;;;;5.87;49.31;99885.72;1777108;80;21771;-65
2021/03/26 06:17:20;;;;;;;28.95;16.75;;;;;;;5.68;49.34;99886.23;1786256;80;21177;-67
2021/03/26 06:20:34;;;;;;;30.00;17.57;;;;;;;5.65;49.27;99881.98;1756650;82;21146;-66
2021/03/26 06:23:59;;;;;;;28.47;17.40;;;;;;;5.67;49.66;99885.84;1711122;82;21137;-66
2021/03/26 06:26:32;;;;;;;;;;;;;;;5.61;49.72;99883.03;1756871;82;21590;-67
2021/03/26 06:29:21;;;;;;;30.85;17.77;;;;;;;5.67;49.75;99880.12;1756472;81;20152;-67
2021/03/26 06:32:31;;;;;;;40.05;20.40;;;;;;;5.69;49.80;99883.53;1756291;82;21257;-67
2021/03/26 06:35:51;;;;;;;35.90;17.98;;;;;;;5.86;49.86;99885.80;1756463;82;21154;-67
2021/03/26 06:38:36;;;;;;;32.50;17.80;;;;;;;6.02;49.33;99882.85;1756745;82;21202;-67
2021/03/26 06:41:43;;;;;;;29.52;17.45;;;;;;;6.18;48.83;99880.77;1756675;82;21111;-67
2021/03/26 06:44:49;;;;;;;30.00;18.20;;;;;;;6.29;48.88;99881.09;1756475;80;21607;-67
2021/03/26 06:47:41;;;;;;;31.57;16.87;;;;;;;6.35;48.43;99883.38;1757039;81;21543;-67
2021/03/26 06:50:26;;;;;;;33.70;17.17;;;;;;;6.50;48.15;99884.86;1756518;82;21226;-66
2021/03/26 06:53:05;;;;;;;36.08;19.52;;;;;;;6.65;47.85;99895.89;1756547;82;21143;-67
2021/03/26 06:56:10;;;;;;;31.02;18.60;;;;;;;6.77;47.46;99885.67;1756776;82;21134;-67
2021/03/26 06:58:47;;;;;;;29.52;17.42;;;;;;;6.81;47.90;99888.52;1756856;82;21170;-67
2021/03/26 07:01:44;;;;;;;33.83;17.60;;;;;;;6.98;48.53;99881.91;1756481;81;21166;-67
2021/03/26 07:04:56;;;;;;;30.57;16.90;;;;;;;7.21;47.96;99884.61;1756240;81;21142;-66
2021/03/26 07:08:12;;;;;;;31.05;18.27;;;;;;;7.33;46.84;99880.45;1756441;82;21193;-66
2021/03/26 07:10:53;;;;;;;34.23;17.90;;;;;;;7.41;47.20;99883.14;1756382;82;21134;-66
2021/03/26 07:13:37;;;;;;;36.20;18.42;;;;;;;7.62;47.40;99885.91;1756641;82;21159;-67
2021/03/26 07:16:31;;;;;;;42.83;18.90;;;;;;;7.78;46.27;99885.88;1755888;82;21304;-67
2021/03/26 07:19:44;;;;;;;37.93;20.50;;;;;;;7.84;45.97;99886.02;1755802;80;21140;-66
2021/03/26 07:22:46;;;;;;;39.15;19.87;;;;;;;7.96;46.55;99889.72;1755741;81;21754;-67
2021/03/26 07:25:39;;;;;;;34.30;18.45;;;;;;;8.03;45.01;99888.41;1724280;82;21164;-67
2021/03/26 07:28:38;;;;;;;27.50;15.98;;;;;;;8.06;45.06;99885.63;1755928;82;21364;-66
2021/03/26 07:31:14;;;;;;;41.00;18.77;;;;;;;8.14;45.91;99889.96;1755871;82;21280;-67
2021/03/26 07:33:56;;;;;;;41.13;16.52;;;;;;;8.31;45.09;99889.00;1755870;81;21280;-66
2021/03/26 07:37:04;;;;;;;31.33;18.10;;;;;;;8.44;44.49;99894.84;1756025;82;21123;-67
2021/03/26 07:39:42;;;;;;;40.10;17.85;;;;;;;8.45;44.15;99889.95;1755973;81;21166;-67
2021/03/26 07:42:40;;;;;;;31.25;17.82;;;;;;;8.51;44.51;99892.27;1755858;82;21166;-66
2021/03/26 07:45:18;;;;;;;27.07;15.23;;;;;;;8.65;44.50;99897.55;1756038;82;21602;-67
2021/03/26 07:48:33;;;;;;;41.18;18.12;;;;;;;8.81;43.94;99899.26;1755915;82;21166;-67
2021/03/26 07:51:30;;;;;;;26.80;14.43;;;;;;;8.86;43.25;99913.02;1755935;82;21147;-66
2021/03/26 07:54:25;;;;;;;25.77;15.95;;;;;;;8.92;43.22;99899.45;1755719;82;21174;-67
2021/03/26 07:57:24;;;;;;;29.98;16.07;;;;;;;8.96;43.16;99907.55;1756144;81;21591;-67
2021/03/26 08:00:17;;;;;;;23.00;15.15;;;;;;;8.80;42.67;99873.38;1756113;82;21749;-67
2021/03/26 08:03:11;;;;;;;22.30;14.95;;;;;;;9.06;43.58;99904.38;1749949;82;22024;-66
2021/03/26 08:05:54;;;;;;;;;;;;;;;9.21;43.14;99909.16;1745458;82;21305;-66
2021/03/26 08:08:43;;;;;;;27.13;15.88;;;;;;;9.24;41.62;99908.98;1743237;82;20492;-67
2021/03/26 08:11:20;;;;;;;25.27;14.43;;;;;;;9.12;41.85;99905.32;1742857;82;21107;-67
2021/03/26 08:14:20;;;;;;;27.22;17.05;;;;;;;9.13;43.18;99912.27;1743062;82;21117;-67
2021/03/26 08:17:11;;;;;;;28.60;15.40;;;;;;;9.27;42.88;99907.00;1742979;81;21297;-67
2021/03/26 08:20:01;;;;;;;37.05;18.52;;;;;;;9.37;42.54;99906.42;1742908;82;21129;-66
2021/03/26 08:23:04;;;;;;;28.95;17.87;;;;;;;9.41;41.82;99907.91;1742949;82;21115;-67
2021/03/26 08:25:41;;;;;;;31.60;15.85;;;;;;;9.39;42.64;99913.78;1743335;82;21535;-66
2021/03/26 08:28:41;;;;;;;26.68;16.80;;;;;;;9.39;41.52;99913.30;1743085;82;21305;-67
2021/03/26 08:31:40;;;;;;;27.10;16.05;;;;;;;9.37;42.05;99906.42;1742986;82;21143;-67
2021/03/26 08:34:35;;;;;;;21.93;13.32;;;;;;;9.35;42.59;99915.28;1743113;82;21702;-67
2021/03/26 08:37:28;;;;;;;39.50;15.83;;;;;;;9.42;42.13;99909.62;1742995;82;21690;-67
2021/03/26 08:40:00;;;;;;;44.03;16.23;;;;;;;9.39;42.53;99913.30;1743121;82;21147;-67
2021/03/26 08:42:41;;;;;;;25.75;14.23;;;;;;;9.44;43.04;99913.02;1742839;82;21277;-67
2021/03/26 08:45:14;;;;;;;31.23;15.70;;;;;;;9.58;43.55;99910.80;1742723;81;21183;-68
2021/03/26 08:47:53;;;;;;;27.67;14.43;;;;;;;9.73;43.17;99911.16;1743300;82;21123;-68
2021/03/26 08:50:49;;;;;;;26.48;14.65;;;;;;;9.84;42.25;99913.09;1742763;82;21158;-68
2021/03/26 08:53:49;;;;;;;23.02;13.45;;;;;;;9.90;42.60;99912.70;1737493;82;21313;-68
2021/03/26 08:56:44;;;;;;;21.50;13.35;;;;;;;9.97;41.78;99923.72;1742804;82;21195;-66
2021/03/26 09:02:19;;;;;;;19.42;11.45;;;;;;;10.13;41.23;99911.20;1780268;79;22996;-67
2021/03/26 09:05:12;;;;;;;20.12;10.78;;;;;;;10.11;41.25;99921.01;1753139;82;21096;-67
2021/03/26 09:08:19;;;;;;;18.15;11.20;;;;;;;10.10;40.78;99912.73;1753096;82;21159;-66
2021/03/26 09:11:17;;;;;;;18.77;11.97;;;;;;;10.09;40.57;99914.99;1753120;82;21156;-66
2021/03/26 09:13:56;;;;;;;16.27;10.82;;;;;;;10.08;40.86;99921.71;1752972;82;21325;-67
2021/03/26 09:16:33;;;;;;;20.08;11.97;;;;;;;10.07;40.19;99915.56;1747875;82;21301;-68
2021/03/26 09:19:08;;;;;;;24.98;11.85;;;;;;;10.11;40.05;99921.49;1723289;83;21570;-68
2021/03/26 09:22:11;;;;;;;17.00;10.32;;;;;;;10.20;40.57;99921.37;1723067;83;21292;-68
2021/03/26 09:25:07;;;;;;;19.73;11.22;;;;;;;10.29;40.11;99917.66;1723415;83;21115;-66
2021/03/26 09:27:48;;;;;;;16.32;10.18;;;;;;;10.40;38.82;99921.41;1723269;83;21620;-68
2021/03/26 09:30:33;;;;;;;18.42;10.43;;;;;;;10.43;39.20;99910.61;1723104;83;21147;-67
2021/03/26 09:33:07;;;;;;;23.05;11.68;;;;;;;10.41;39.06;99920.43;1723126;83;21119;-68
2021/03/26 09:35:53;;;;;;;26.10;12.00;;;;;;;10.38;39.88;99916.69;1723307;83;21630;-66
2021/03/26 09:38:34;;;;;;;24.07;12.30;;;;;;;10.39;39.45;99916.57;1723231;83;21309;-67
2021/03/26 09:41:26;;;;;;;21.00;11.03;;;;;;;10.53;39.54;99917.45;1722602;83;21170;-67
2021/03/26 09:44:29;;;;;;;17.90;10.45;;;;;;;10.69;38.67;99919.89;1723144;82;21200;-68
2021/03/26 09:47:07;;;;;;;19.25;10.38;;;;;;;10.70;39.40;99925.08;1723229;83;21195;-67
2021/03/26 09:49:44;;;;;;;18.10;10.65;;;;;;;10.75;39.33;99919.48;1695899;83;21171;-68
2021/03/26 09:52:37;;;;;;;14.40;9.50;;;;;;;10.79;39.10;99915.66;1723197;83;21301;-67
2021/03/26 09:55:19;;;;;;;25.55;10.93;;;;;;;10.81;39.31;99915.09;1723589;83;21162;-68
2021/03/26 09:57:58;;;;;;;33.25;12.40;;;;;;;10.85;38.79;99916.57;1723404;83;21135;-67
2021/03/26 10:01:16;;;;;;;23.52;10.43;;;;;;;10.92;39.17;99926.25;1710495;83;21300;-66
2021/03/26 10:04:07;;;;;;;24.25;10.38;;;;;;;11.01;39.00;99920.34;1718222;83;21377;-67
2021/03/26 10:06:53;;;;;;;18.48;9.68;;;;;;;10.98;38.85;99916.11;1716797;83;21143;-66
2021/03/26 10:12:21;;;;;;;15.48;8.43;;;;;;;10.92;37.89;99919.17;1718150;83;21647;-67
2021/03/26 10:15:05;;;;;;;19.70;8.75;;;;;;;10.98;38.61;99928.48;1717941;83;21167;-67
2021/03/26 10:17:58;;;;;;;11.88;7.10;;;;;;;11.13;38.73;99930.05;1717653;82;21195;-67
2021/03/26 10:20:38;;;;;;;12.43;6.00;;;;;;;11.26;36.00;99910.18;1717771;83;21598;-67
2021/03/26 10:23:34;;;;;;;10.28;5.97;;;;;;;11.30;33.72;99914.33;1689065;83;21147;-66
2021/03/26 10:26:28;;;;;;;9.35;5.80;;;;;;;11.29;32.58;99902.50;1717902;83;21321;-67
2021/03/26 10:29:12;;;;;;;9.78;5.45;;;;;;;11.19;32.14;99909.40;1717971;83;21159;-67
2021/03/26 10:31:36;;;;;;;7.00;4.70;;;;;;;11.10;31.92;99913.08;1717461;83;21308;-67
2021/03/26 10:34:07;;;;;;;9.58;5.70;;;;;;;11.09;30.85;99907.41;1717895;83;21734;-67
2021/03/26 10:36:49;;;;;;;14.20;5.80;;;;;;;11.06;31.47;99906.77;1717671;83;21175;-67
2021/03/26 10:39:36;;;;;;;10.28;6.03;;;;;;;11.05;32.26;99907.72;1717938;83;21163;-67
2021/03/26 10:42:32;;;;;;;10.32;6.40;;;;;;;11.06;32.50;99909.41;1716707;83;21777;-67
2021/03/26 10:45:29;;;;;;;9.40;5.58;;;;;;;11.04;32.86;99896.79;1717859;82;21598;-67
2021/03/26 10:48:14;;;;;;;12.78;7.30;;;;;;;11.06;33.34;99902.80;1717968;83;21305;-67
2021/03/26 10:51:17;;;;;;;8.80;6.20;;;;;;;11.12;33.19;99914.28;1689932;83;21322;-66
2021/03/26 10:53:56;;;;;;;10.68;6.78;;;;;;;11.15;33.74;99899.50;1717818;83;21674;-66
2021/03/26 10:56:49;;;;;;;16.23;6.70;;;;;;;11.18;33.52;99908.56;1717922;83;21151;-66
2021/03/26 10:59:25;;;;;;;10.60;6.95;;;;;;;11.10;33.60;99913.08;1717670;83;21333;-67
2021/03/26 11:01:56;;;;;;;9.33;6.45;;;;;;;11.15;33.14;99906.12;1712663;83;21636;-67
2021/03/26 11:04:35;;;;;;;10.72;6.72;;;;;;;11.16;33.15;99903.84;1709837;83;21171;-66
2021/03/26 11:07:08;;;;;;;11.18;7.12;;;;;;;11.21;33.63;99903.04;1709804;84;21168;-67
2021/03/26 11:09:42;;;;;;;9.90;6.92;;;;;;;11.28;33.29;99904.31;1710071;84;21155;-66
2021/03/26 11:12:40;;;;;;;10.25;6.65;;;;;;;11.37;33.85;99908.57;1709758;84;21803;-67
2021/03/26 11:15:22;;;;;;;12.65;6.87;;;;;;;11.38;33.61;99897.03;1687317;84;21162;-66
2021/03/26 11:18:20;;;;;;;12.15;6.17;;;;;;;11.44;33.15;99906.70;1710136;82;21576;-66
2021/03/26 11:21:01;;;;;;;12.23;7.95;;;;;;;11.50;32.31;99909.41;1709937;84;21321;-66
2021/03/26 11:23:37;;;;;;;14.58;8.25;;;;;;;11.50;33.56;99896.16;1709969;84;21298;-67
2021/03/26 11:26:16;;;;;;;13.90;8.78;;;;;;;11.53;34.00;99903.88;1709952;84;21140;-66
2021/03/26 11:28:58;;;;;;;12.00;8.23;;;;;;;11.58;33.39;99901.73;1709555;84;21338;-66
2021/03/26 11:31:36;;;;;;;12.25;7.58;;;;;;;11.62;34.23;99893.96;1709980;83;21136;-67
2021/03/26 11:34:36;;;;;;;7.67;5.80;;;;;;;11.62;34.70;99893.96;1709981;84;21333;-67
2021/03/26 11:37:29;;;;;;;7.53;5.53;;;;;;;11.64;34.85;99886.73;1709707;84;21151;-68
2021/03/26 11:40:08;;;;;;;11.80;6.00;;;;;;;11.63;34.26;99886.36;1709915;84;21211;-67
2021/03/26 11:43:00;;;;;;;7.37;4.80;;;;;;;11.57;35.40;99891.27;1709714;82;21155;-67
2021/03/26 11:45:42;;;;;;;9.88;4.65;;;;;;;11.50;35.11;99895.33;1708830;84;21248;-67
2021/03/26 11:48:24;;;;;;;6.40;4.20;;;;;;;11.48;35.30;99887.47;1710030;84;21140;-67
2021/03/26 11:51:06;;;;;;;12.53;4.72;;;;;;;11.45;36.35;99883.23;1709736;84;21727;-67
2021/03/26 11:53:46;;;;;;;5.17;3.62;;;;;;;11.36;36.17;99885.23;1709817;84;21148;-68
2021/03/26 11:56:38;;;;;;;8.15;3.70;;;;;;;11.36;35.31;99886.55;1709684;83;21167;-68
2021/03/26 11:59:42;;;;;;;7.00;4.80;;;;;;;11.30;35.93;99890.95;1709943;83;21156;-68
2021/03/26 12:02:23;;;;;;;6.15;3.80;;;;;;;11.27;36.51;99890.70;1714645;83;21191;-68
2021/03/26 12:05:17;;;;;;;5.87;3.50;;;;;;;11.36;36.27;99887.88;1717804;83;21147;-68
2021/03/26 12:08:04;;;;;;;7.05;3.85;;;;;;;11.38;36.31;99890.41;1715461;83;21924;-67
2021/03/26 12:10:42;;;;;;;5.65;4.05;;;;;;;11.33;36.24;99887.25;1717936;83;21172;-67
2021/03/26 12:13:36;;;;;;;5.50;3.87;;;;;;;11.30;35.73;99889.17;1715980;83;21158;-67
2021/03/26 12:16:25;;;;;;;5.70;3.87;;;;;;;11.35;35.79;99883.53;1717770;82;21160;-67
2021/03/26 12:19:00;;;;;;;8.98;4.97;;;;;;;11.38;35.76;99883.79;1717621;83;21707;-67
2021/03/26 12:21:58;;;;;;;8.35;4.00;;;;;;;11.36;36.49;99876.45;1717734;83;21592;-67
2021/03/26 12:24:39;;;;;;;10.45;4.60;;;;;;;11.44;35.97;99872.77;1717825;83;21603;-67
2021/03/26 12:27:37;;;;;;;9.53;4.80;;;;;;;11.46;36.05;99869.54;1717886;83;21178;-68
2021/03/26 12:30:15;;;;;;;10.88;5.47;;;;;;;11.41;36.36;99866.38;1717766;83;21174;-68
2021/03/26 12:32:59;;;;;;;6.17;4.53;;;;;;;11.45;36.63;99862.55;1717778;83;21394;-68
2021/03/26 12:35:33;;;;;;;6.42;4.60;;;;;;;11.49;36.28;99866.66;1717713;83;21187;-68
2021/03/26 12:38:21;;;;;;;7.58;4.97;;;;;;;11.53;36.88;99869.44;1717622;83;21721;-66
2021/03/26 12:41:02;;;;;;;11.28;4.22;;;;;;;11.58;36.27;99862.50;1717564;83;21228;-66
2021/03/26 12:43:47;;;;;;;7.47;3.80;;;;;;;11.60;36.17;99868.55;1717602;82;21208;-67
2021/03/26 12:46:42;;;;;;;8.85;3.67;;;;;;;11.56;36.35;99866.59;1717933;83;21175;-67
2021/03/26 12:49:17;;;;;;;9.80;4.10;;;;;;;11.51;36.32;99864.75;1717867;83;21320;-67